Time;durP1;ratioP1;P1;durP2;ratioP2;P2;SDS_P1;SDS_P2;PMS_P1;PMS_P2;Temp;Humidity;BMP_temperature;BMP_pressure;BME280_temperature;BME280_humidity;BME280_pressure;Samples;Min_cycle;Max_cycle;Signal;HPM_P1;HPM_P2
2023/06/09 00:00:07;;;;;;;6.72;6.22;;;;;;;;;;4993977;28;20038;-61
2023/06/09 00:02:33;;;;;;;7.07;5.80;;;;;;;;;;4994312;28;20031;-61
2023/06/09 00:04:59;;;;;;;6.88;6.28;;;;;;;;;;4994280;28;20034;-60
2023/06/09 00:07:27;;;;;;;6.78;6.03;;;;;;;;;;4993986;28;20080;-60
2023/06/09 00:09:52;;;;;;;6.68;6.05;;;;;;;;;;4993912;28;20125;-60
2023/06/09 00:12:17;;;;;;;7.35;6.65;;;;;;;;;;4994005;28;20109;-60
2023/06/09 00:14:43;;;;;;;7.00;5.75;;;;;;;;;;4993826;28;20065;-60
2023/06/09 00:17:08;;;;;;;5.93;5.47;;;;;;;;;;4994282;28;20037;-61
2023/06/09 00:19:35;;;;;;;7.05;6.35;;;;;;;;;;4993845;28;20030;-61
2023/06/09 00:22:01;;;;;;;6.75;6.15;;;;;;;;;;4994097;28;20027;-61
2023/06/09 00:24:26;;;;;;;7.03;6.43;;;;;;;;;;4976341;28;20442;-61
2023/06/09 00:26:51;;;;;;;7.28;6.68;;;;;;;;;;4993774;28;20022;-61
2023/06/09 00:29:18;;;;;;;7.13;6.53;;;;;;;;;;4976300;28;20027;-61
2023/06/09 00:31:45;;;;;;;6.60;6.00;;;;;;;;;;4993898;28;20444;-60
2023/06/09 00:34:10;;;;;;;6.45;5.95;;;;;;;;;;4993695;28;20026;-61
2023/06/09 00:36:36;;;;;;;6.70;6.10;;;;;;;;;;4993714;28;20056;-61
2023/06/09 00:39:02;;;;;;;7.55;6.18;;;;;;;;;;4976205;28;20034;-61
2023/06/09 00:41:27;;;;;;;6.72;6.07;;;;;;;;;;4976228;28;20048;-60
2023/06/09 00:43:55;;;;;;;6.38;5.78;;;;;;;;;;4993620;28;20474;-60
2023/06/09 00:46:21;;;;;;;6.15;5.65;;;;;;;;;;4993582;28;20049;-61
2023/06/09 00:48:46;;;;;;;7.22;6.50;;;;;;;;;;4976534;28;20030;-61
2023/06/09 00:51:12;;;;;;;6.90;6.22;;;;;;;;;;4993866;28;20066;-61
2023/06/09 00:53:37;;;;;;;6.88;6.18;;;;;;;;;;4996039;28;20038;-61
2023/06/09 00:56:03;;;;;;;7.22;6.63;;;;;;;;;;4979573;28;20034;-61
2023/06/09 00:58:28;;;;;;;6.13;5.63;;;;;;;;;;4997200;28;20343;-61
2023/06/09 01:00:57;;;;;;;6.47;5.95;;;;;;;;;;4996991;28;20026;-61
2023/06/09 01:03:24;;;;;;;8.00;5.97;;;;;;;;;;4979488;28;20046;-61
2023/06/09 01:05:53;;;;;;;9.13;6.57;;;;;;;;;;4997412;28;20077;-61
2023/06/09 01:08:24;;;;;;;7.07;6.40;;;;;;;;;;4997123;28;20045;-61
2023/06/09 01:10:58;;;;;;;6.95;6.35;;;;;;;;;;4979328;28;20022;-61
2023/06/09 01:13:30;;;;;;;6.95;6.35;;;;;;;;;;4979347;28;20030;-61
2023/06/09 01:16:03;;;;;;;6.90;6.35;;;;;;;;;;4979245;28;20058;-62
2023/06/09 01:18:30;;;;;;;7.68;6.30;;;;;;;;;;4996981;28;20034;-61
2023/06/09 01:21:02;;;;;;;7.28;6.07;;;;;;;;;;4996713;28;20030;-61
2023/06/09 01:23:41;;;;;;;6.65;6.10;;;;;;;;;;4979074;28;20042;-61
2023/06/09 01:26:07;;;;;;;7.03;6.40;;;;;;;;;;4997078;28;20026;-61
2023/06/09 01:28:33;;;;;;;6.88;6.38;;;;;;;;;;4996556;28;20059;-61
2023/06/09 01:31:01;;;;;;;7.25;6.53;;;;;;;;;;4978956;28;20394;-61
2023/06/09 01:33:27;;;;;;;6.85;6.05;;;;;;;;;;4979404;28;20034;-60
2023/06/09 01:35:53;;;;;;;6.68;6.05;;;;;;;;;;4996470;28;20034;-60
2023/06/09 01:38:20;;;;;;;6.63;6.13;;;;;;;;;;4978654;28;20027;-60
2023/06/09 01:40:45;;;;;;;6.97;6.30;;;;;;;;;;4996239;28;20501;-61
2023/06/09 01:43:11;;;;;;;6.10;5.60;;;;;;;;;;4978731;28;20371;-61
2023/06/09 01:45:37;;;;;;;7.60;6.93;;;;;;;;;;4995990;28;20057;-61
2023/06/09 01:48:20;;;;;;;6.40;5.90;;;;;;;;;;4996103;28;20026;-62
2023/06/09 01:50:51;;;;;;;6.90;6.30;;;;;;;;;;4996058;28;20030;-61
2023/06/09 01:53:18;;;;;;;7.28;6.60;;;;;;;;;;4996003;28;20505;-61
2023/06/09 01:55:58;;;;;;;8.60;7.65;;;;;;;;;;4996384;28;20064;-61
2023/06/09 01:58:24;;;;;;;;;;;;;;;;;;4978816;28;20035;-61
2023/06/09 02:00:50;;;;;;;5.85;5.38;;;;;;;;;;4978703;28;20274;-61
2023/06/09 02:03:20;;;;;;;6.97;6.32;;;;;;;;;;4995333;28;20475;-61
2023/06/09 02:05:46;;;;;;;7.60;6.93;;;;;;;;;;4978623;28;20438;-61
2023/06/09 02:08:11;;;;;;;7.00;6.38;;;;;;;;;;4978262;28;20371;-60
2023/06/09 02:10:37;;;;;;;6.20;5.60;;;;;;;;;;4978128;28;20049;-60
2023/06/09 02:13:16;;;;;;;7.15;6.43;;;;;;;;;;4978148;28;20034;-61
2023/06/09 02:15:45;;;;;;;8.25;6.43;;;;;;;;;;4995921;28;20382;-60
2023/06/09 02:18:11;;;;;;;8.05;7.13;;;;;;;;;;4995791;28;20026;-60
2023/06/09 02:20:40;;;;;;;7.30;6.63;;;;;;;;;;4995643;28;20014;-60
2023/06/09 02:23:06;;;;;;;7.20;6.55;;;;;;;;;;4962141;28;20460;-61
2023/06/09 02:25:32;;;;;;;8.00;7.20;;;;;;;;;;4995523;28;20026;-61
2023/06/09 02:27:58;;;;;;;7.97;7.18;;;;;;;;;;4995357;28;20034;-61
2023/06/09 02:30:25;;;;;;;7.18;6.57;;;;;;;;;;4996266;23;20485;-60
2023/06/09 02:32:50;;;;;;;7.00;6.50;;;;;;;;;;5034609;28;20432;-60
2023/06/09 02:35:15;;;;;;;7.55;6.70;;;;;;;;;;5050063;28;20033;-61
2023/06/09 02:37:41;;;;;;;7.47;6.78;;;;;;;;;;5049789;28;20042;-61
2023/06/09 02:40:08;;;;;;;6.75;6.18;;;;;;;;;;5049817;28;20491;-61
2023/06/09 02:42:33;;;;;;;6.80;6.20;;;;;;;;;;5049806;28;20116;-61
2023/06/09 02:45:01;;;;;;;7.20;6.63;;;;;;;;;;5016952;28;20120;-61
2023/06/09 02:47:27;;;;;;;7.13;6.43;;;;;;;;;;5034357;28;20037;-61
2023/06/09 02:49:52;;;;;;;7.35;6.65;;;;;;;;;;5016684;28;20389;-61
2023/06/09 02:52:18;;;;;;;7.47;6.85;;;;;;;;;;5049548;28;20385;-61
2023/06/09 02:54:43;;;;;;;8.15;6.82;;;;;;;;;;5016507;28;20021;-61
2023/06/09 02:57:10;;;;;;;6.90;6.30;;;;;;;;;;5049435;28;20021;-61
2023/06/09 02:59:36;;;;;;;7.25;6.65;;;;;;;;;;5049954;28;20059;-61
2023/06/09 03:02:01;;;;;;;7.10;6.50;;;;;;;;;;5049413;28;20068;-62
2023/06/09 03:04:27;;;;;;;7.60;6.90;;;;;;;;;;5049991;28;20040;-61
2023/06/09 03:06:53;;;;;;;6.82;6.22;;;;;;;;;;5016329;28;20385;-61
2023/06/09 03:09:19;;;;;;;8.32;7.53;;;;;;;;;;5049725;28;20179;-61
2023/06/09 03:11:47;;;;;;;7.53;6.88;;;;;;;;;;5049277;28;20029;-61
2023/06/09 03:14:13;;;;;;;7.80;7.10;;;;;;;;;;5016242;28;20037;-61
2023/06/09 03:16:39;;;;;;;7.55;6.90;;;;;;;;;;5049010;28;20025;-61
2023/06/09 03:19:05;;;;;;;8.32;7.60;;;;;;;;;;5015966;28;20116;-61
2023/06/09 03:21:35;;;;;;;8.05;7.35;;;;;;;;;;5015985;28;20026;-61
2023/06/09 03:24:02;;;;;;;7.75;7.05;;;;;;;;;;5049135;28;20083;-61
2023/06/09 03:26:28;;;;;;;7.00;6.50;;;;;;;;;;5033695;28;20087;-61
2023/06/09 03:28:53;;;;;;;7.50;6.78;;;;;;;;;;5049503;28;20021;-61
2023/06/09 03:31:19;;;;;;;7.70;7.00;;;;;;;;;;5012454;28;20113;-61
2023/06/09 03:33:46;;;;;;;8.02;7.22;;;;;;;;;;5013914;28;20041;-60
2023/06/09 03:36:12;;;;;;;7.43;6.80;;;;;;;;;;5012624;28;20034;-61
2023/06/09 03:38:38;;;;;;;8.20;7.40;;;;;;;;;;5012516;28;20486;-61
2023/06/09 03:41:04;;;;;;;9.82;7.18;;;;;;;;;;4996319;28;20026;-55
2023/06/09 03:43:29;;;;;;;7.97;7.32;;;;;;;;;;5012590;28;20022;-55
2023/06/09 03:45:55;;;;;;;8.10;7.30;;;;;;;;;;5045755;28;20100;-55
2023/06/09 03:48:21;;;;;;;7.68;6.95;;;;;;;;;;5045865;28;20117;-55
2023/06/09 03:50:47;;;;;;;7.90;7.20;;;;;;;;;;5046050;28;20450;-56
2023/06/09 03:53:13;;;;;;;8.38;7.47;;;;;;;;;;5012834;28;20030;-56
2023/06/09 03:55:38;;;;;;;7.60;6.95;;;;;;;;;;5014257;28;20439;-55
2023/06/09 03:58:05;;;;;;;7.55;6.90;;;;;;;;;;5013901;28;20407;-55
2023/06/09 04:00:30;;;;;;;8.13;7.43;;;;;;;;;;5045471;28;20030;-56
2023/06/09 04:02:58;;;;;;;7.55;6.75;;;;;;;;;;5045466;28;20022;-56
2023/06/09 04:05:25;;;;;;;10.13;7.82;;;;;;;;;;5014228;28;20026;-56
2023/06/09 04:07:52;;;;;;;8.30;7.60;;;;;;;;;;5045593;28;20385;-55
2023/06/09 04:10:18;;;;;;;7.70;7.00;;;;;;;;;;5014123;28;20037;-56
2023/06/09 04:12:44;;;;;;;8.30;7.57;;;;;;;;;;5014265;28;20049;-56
2023/06/09 04:15:10;;;;;;;10.05;8.32;;;;;;;;;;5013060;28;20402;-55
2023/06/09 04:17:41;;;;;;;8.40;7.60;;;;;;;;;;5045324;28;20026;-56
2023/06/09 04:20:10;;;;;;;7.60;7.00;;;;;;;;;;5012600;28;20080;-55
2023/06/09 04:22:48;;;;;;;7.78;7.18;;;;;;;;;;5045994;28;20033;-56
2023/06/09 04:25:16;;;;;;;8.38;7.63;;;;;;;;;;5045244;28;20033;-56
2023/06/09 04:27:42;;;;;;;8.20;7.43;;;;;;;;;;5047308;28;20034;-56
2023/06/09 04:30:08;;;;;;;5.45;4.97;;;;;;;;;;5049321;28;20022;-56
2023/06/09 04:32:34;;;;;;;7.72;7.03;;;;;;;;;;5048871;28;20046;-55
2023/06/09 04:35:01;;;;;;;10.90;7.95;;;;;;;;;;5015820;28;20088;-56
2023/06/09 04:37:26;;;;;;;11.27;8.27;;;;;;;;;;5049166;28;20154;-56
2023/06/09 04:39:54;;;;;;;8.65;7.85;;;;;;;;;;5015814;28;20022;-55
2023/06/09 04:42:22;;;;;;;8.75;7.95;;;;;;;;;;5015630;28;20014;-56
2023/06/09 04:44:51;;;;;;;8.65;7.68;;;;;;;;;;5016942;28;20042;-55
2023/06/09 04:47:20;;;;;;;9.57;7.70;;;;;;;;;;5048702;28;20025;-56
2023/06/09 04:49:47;;;;;;;7.63;7.03;;;;;;;;;;5015587;28;20033;-56
2023/06/09 04:52:13;;;;;;;8.30;7.50;;;;;;;;;;5048262;28;20072;-55
2023/06/09 04:54:38;;;;;;;8.15;7.45;;;;;;;;;;5015427;28;20041;-60
2023/06/09 04:57:08;;;;;;;8.68;7.88;;;;;;;;;;5059014;22;20084;-55
2023/06/09 04:59:34;;;;;;;8.43;7.50;;;;;;;;;;5015126;28;20076;-55
2023/06/09 05:02:00;;;;;;;8.63;7.82;;;;;;;;;;5015069;28;20473;-56
2023/06/09 05:04:26;;;;;;;8.30;7.53;;;;;;;;;;5015270;28;20389;-56
2023/06/09 05:06:52;;;;;;;8.68;7.88;;;;;;;;;;4998960;28;20037;-56
2023/06/09 05:09:17;;;;;;;8.25;7.47;;;;;;;;;;5015438;28;20114;-56
2023/06/09 05:11:43;;;;;;;8.02;7.32;;;;;;;;;;5014845;28;20485;-56
2023/06/09 05:14:08;;;;;;;8.48;7.75;;;;;;;;;;5015087;28;20091;-55
2023/06/09 05:16:34;;;;;;;8.30;7.53;;;;;;;;;;5015045;28;20030;-55
2023/06/09 05:19:02;;;;;;;7.93;7.18;;;;;;;;;;5015526;28;20072;-55
2023/06/09 05:21:28;;;;;;;8.15;7.35;;;;;;;;;;5014912;28;20033;-55
2023/06/09 05:23:54;;;;;;;8.55;7.75;;;;;;;;;;5014855;28;20024;-56
2023/06/09 05:26:20;;;;;;;7.97;7.28;;;;;;;;;;5047931;28;20092;-56
2023/06/09 05:28:46;;;;;;;9.65;7.82;;;;;;;;;;5015285;28;20061;-55
2023/06/09 05:31:11;;;;;;;8.52;7.72;;;;;;;;;;5047907;28;20164;-55
2023/06/09 05:33:37;;;;;;;9.50;8.00;;;;;;;;;;5014660;28;20041;-56
2023/06/09 05:36:03;;;;;;;9.18;8.18;;;;;;;;;;4997638;28;20520;-59
2023/06/09 05:38:29;;;;;;;10.88;8.25;;;;;;;;;;5013384;28;20076;-56
2023/06/09 05:40:55;;;;;;;10.63;8.48;;;;;;;;;;5016235;28;20037;-56
2023/06/09 05:43:21;;;;;;;8.48;7.50;;;;;;;;;;5014461;28;20029;-56
2023/06/09 05:45:46;;;;;;;7.43;6.72;;;;;;;;;;5015973;28;20041;-56
2023/06/09 05:48:11;;;;;;;7.22;6.47;;;;;;;;;;5015645;28;20033;-56
2023/06/09 05:50:37;;;;;;;8.63;7.72;;;;;;;;;;5016059;28;20029;-56
2023/06/09 05:53:03;;;;;;;9.40;8.38;;;;;;;;;;5015897;28;20037;-56
2023/06/09 05:55:28;;;;;;;9.27;8.32;;;;;;;;;;5015624;28;20026;-56
2023/06/09 05:57:54;;;;;;;9.18;8.27;;;;;;;;;;5049723;28;20059;-57
2023/06/09 06:00:19;;;;;;;10.32;9.40;;;;;;;;;;5055736;28;20025;-57
2023/06/09 06:02:45;;;;;;;9.50;8.65;;;;;;;;;;5037341;28;20472;-61
2023/06/09 06:05:12;;;;;;;8.65;7.85;;;;;;;;;;5055282;28;20047;-56
2023/06/09 06:07:37;;;;;;;10.32;8.68;;;;;;;;;;5054003;28;20029;-55
2023/06/09 06:10:06;;;;;;;13.00;9.93;;;;;;;;;;5053927;28;20056;-55
2023/06/09 06:12:34;;;;;;;9.40;8.60;;;;;;;;;;5053940;28;20048;-55
2023/06/09 06:14:59;;;;;;;11.68;9.38;;;;;;;;;;5053883;28;20083;-55
2023/06/09 06:17:25;;;;;;;8.88;7.97;;;;;;;;;;5053716;28;20033;-55
2023/06/09 06:19:51;;;;;;;10.57;9.57;;;;;;;;;;5053748;28;20039;-56
2023/06/09 06:22:16;;;;;;;11.32;9.00;;;;;;;;;;5053668;28;20028;-55
2023/06/09 06:24:41;;;;;;;9.45;8.52;;;;;;;;;;5053644;28;20031;-55
2023/06/09 06:27:07;;;;;;;9.55;8.38;;;;;;;;;;5053546;28;20067;-55
2023/06/09 06:29:32;;;;;;;7.72;7.13;;;;;;;;;;5053551;28;20032;-56
2023/06/09 06:31:57;;;;;;;8.45;7.65;;;;;;;;;;5053271;28;20067;-56
2023/06/09 06:34:25;;;;;;;8.23;7.53;;;;;;;;;;5035501;28;20500;-56
2023/06/09 06:36:50;;;;;;;9.68;8.02;;;;;;;;;;5051434;28;20021;-56
2023/06/09 06:39:15;;;;;;;10.82;9.18;;;;;;;;;;5051720;28;20105;-56
2023/06/09 06:41:41;;;;;;;8.10;7.30;;;;;;;;;;5051898;28;20076;-56
2023/06/09 06:44:06;;;;;;;9.70;8.70;;;;;;;;;;5051537;28;20445;-56
2023/06/09 06:46:31;;;;;;;6.88;6.20;;;;;;;;;;5051831;28;20540;-56
2023/06/09 06:48:57;;;;;;;7.00;6.40;;;;;;;;;;5034612;28;20037;-56
2023/06/09 06:51:22;;;;;;;10.80;9.80;;;;;;;;;;5052902;28;20033;-56
2023/06/09 06:53:47;;;;;;;9.50;8.60;;;;;;;;;;5053090;28;20044;-56
2023/06/09 06:56:13;;;;;;;8.13;7.30;;;;;;;;;;5052984;28;20044;-56
2023/06/09 06:58:38;;;;;;;9.43;8.63;;;;;;;;;;5035056;28;20041;-56
2023/06/09 07:01:04;;;;;;;9.73;8.85;;;;;;;;;;5052954;28;20025;-56
2023/06/09 07:03:29;;;;;;;11.00;10.00;;;;;;;;;;5052957;28;20033;-56
2023/06/09 07:05:55;;;;;;;11.07;9.98;;;;;;;;;;5052901;28;20037;-56
2023/06/09 07:08:20;;;;;;;11.93;10.77;;;;;;;;;;5052863;28;20021;-56
2023/06/09 07:10:46;;;;;;;11.25;10.23;;;;;;;;;;5034653;28;20025;-56
2023/06/09 07:13:11;;;;;;;12.73;9.82;;;;;;;;;;5052430;28;20476;-56
2023/06/09 07:15:37;;;;;;;10.73;9.32;;;;;;;;;;5053332;28;20032;-56
2023/06/09 07:18:05;;;;;;;13.15;9.30;;;;;;;;;;5053312;28;20037;-56
2023/06/09 07:20:31;;;;;;;10.23;9.35;;;;;;;;;;5035369;28;20059;-61
2023/06/09 07:22:56;;;;;;;10.43;9.32;;;;;;;;;;5034672;28;20032;-62
2023/06/09 07:25:21;;;;;;;9.38;8.55;;;;;;;;;;5052527;28;20112;-62
2023/06/09 07:27:47;;;;;;;9.60;8.80;;;;;;;;;;5052476;28;20040;-62
2023/06/09 07:30:13;;;;;;;9.70;8.70;;;;;;;;;;5052848;28;20076;-61
2023/06/09 07:32:41;;;;;;;11.05;8.70;;;;;;;;;;5052413;28;20061;-61
2023/06/09 07:35:10;;;;;;;9.77;8.98;;;;;;;;;;5052385;28;20112;-62
2023/06/09 07:37:38;;;;;;;9.55;8.65;;;;;;;;;;5052241;28;20029;-62
2023/06/09 07:40:04;;;;;;;9.38;8.57;;;;;;;;;;5052338;28;20495;-62
2023/06/09 07:42:29;;;;;;;9.20;8.32;;;;;;;;;;5052230;28;20052;-62
2023/06/09 07:44:55;;;;;;;10.18;9.27;;;;;;;;;;5034507;28;20048;-62
2023/06/09 07:47:20;;;;;;;9.95;9.05;;;;;;;;;;5052314;28;20025;-61
2023/06/09 07:49:46;;;;;;;10.13;9.23;;;;;;;;;;5052233;28;20033;-61
2023/06/09 07:52:11;;;;;;;10.60;9.70;;;;;;;;;;5052003;28;20029;-61
2023/06/09 07:54:36;;;;;;;10.88;9.90;;;;;;;;;;5052155;28;20025;-61
2023/06/09 07:57:02;;;;;;;9.70;8.70;;;;;;;;;;5051174;28;20102;-61
2023/06/09 07:59:27;;;;;;;11.20;10.25;;;;;;;;;;5052134;28;20025;-61
2023/06/09 08:01:52;;;;;;;11.65;10.45;;;;;;;;;;5053268;28;20056;-61
2023/06/09 08:04:18;;;;;;;10.23;9.32;;;;;;;;;;5056416;28;20487;-61
2023/06/09 08:06:45;;;;;;;9.27;8.30;;;;;;;;;;5056272;28;20032;-61
2023/06/09 08:09:10;;;;;;;11.82;10.85;;;;;;;;;;5071502;28;20033;-61
2023/06/09 08:11:38;;;;;;;11.25;10.30;;;;;;;;;;5038287;28;20021;-61
2023/06/09 08:14:08;;;;;;;11.68;10.48;;;;;;;;;;5071660;28;20478;-61
2023/06/09 08:16:33;;;;;;;10.27;9.25;;;;;;;;;;5056009;28;20040;-61
2023/06/09 08:18:59;;;;;;;8.50;7.70;;;;;;;;;;5055662;28;20029;-61
2023/06/09 08:21:24;;;;;;;9.75;8.80;;;;;;;;;;5056175;28;20075;-61
2023/06/09 08:23:50;;;;;;;13.45;7.85;;;;;;;;;;5055809;28;20052;-61
2023/06/09 08:26:15;;;;;;;7.57;6.88;;;;;;;;;;5038081;28;20025;-61
2023/06/09 08:28:41;;;;;;;8.73;7.95;;;;;;;;;;5071586;28;20033;-61
2023/06/09 08:31:07;;;;;;;9.27;8.43;;;;;;;;;;5071150;28;20031;-61
2023/06/09 08:33:33;;;;;;;7.43;6.57;;;;;;;;;;5055581;28;20100;-61
2023/06/09 08:35:59;;;;;;;8.23;6.60;;;;;;;;;;5037835;28;20033;-60
2023/06/09 08:38:25;;;;;;;7.80;7.15;;;;;;;;;;5055476;28;20013;-60
2023/06/09 08:40:51;;;;;;;8.50;7.68;;;;;;;;;;5055449;28;20103;-61
2023/06/09 08:43:17;;;;;;;9.10;8.20;;;;;;;;;;5055239;28;20238;-61
2023/06/09 08:45:45;;;;;;;9.50;8.57;;;;;;;;;;5053600;28;20031;-61
2023/06/09 08:48:13;;;;;;;9.68;8.95;;;;;;;;;;5052237;28;20064;-61
2023/06/09 08:50:41;;;;;;;8.80;7.90;;;;;;;;;;5052200;28;20036;-61
2023/06/09 08:53:07;;;;;;;8.93;8.07;;;;;;;;;;5034019;28;20033;-60
2023/06/09 08:55:33;;;;;;;9.93;8.98;;;;;;;;;;5067089;28;20032;-61
2023/06/09 08:57:58;;;;;;;7.90;7.20;;;;;;;;;;5033529;28;20047;-61
2023/06/09 09:00:24;;;;;;;8.25;7.25;;;;;;;;;;5051678;28;20481;-61
2023/06/09 09:02:49;;;;;;;6.93;6.18;;;;;;;;;;5051443;28;20476;-61
2023/06/09 09:05:14;;;;;;;6.90;6.18;;;;;;;;;;5051548;28;20033;-61
2023/06/09 09:07:40;;;;;;;6.95;6.32;;;;;;;;;;5052295;28;20033;-61
2023/06/09 09:10:06;;;;;;;7.85;6.13;;;;;;;;;;5054951;28;20029;-61
2023/06/09 09:12:47;;;;;;;6.78;6.18;;;;;;;;;;5054704;28;20469;-61
2023/06/09 09:15:13;;;;;;;7.13;6.38;;;;;;;;;;5054286;28;20040;-61
2023/06/09 09:17:39;;;;;;;6.10;5.60;;;;;;;;;;5037346;28;20112;-61
2023/06/09 09:20:08;;;;;;;6.75;6.18;;;;;;;;;;5056267;28;20149;-62
2023/06/09 09:22:43;;;;;;;7.35;6.70;;;;;;;;;;5056035;28;20100;-62
2023/06/09 09:25:08;;;;;;;6.05;5.43;;;;;;;;;;5055886;28;20043;-62
2023/06/09 09:27:34;;;;;;;7.55;6.95;;;;;;;;;;5037630;28;20032;-62
2023/06/09 09:29:59;;;;;;;6.95;6.35;;;;;;;;;;5056142;28;20107;-62
2023/06/09 09:32:25;;;;;;;7.57;6.97;;;;;;;;;;5038432;28;20033;-62
2023/06/09 09:34:50;;;;;;;6.85;6.18;;;;;;;;;;5037238;28;20477;-62
2023/06/09 09:37:16;;;;;;;8.23;6.93;;;;;;;;;;5055587;28;20055;-62
2023/06/09 09:39:48;;;;;;;7.20;6.50;;;;;;;;;;5053569;28;20139;-62
2023/06/09 09:42:14;;;;;;;7.75;7.03;;;;;;;;;;5055299;28;20033;-62
2023/06/09 09:44:39;;;;;;;8.18;7.18;;;;;;;;;;5037592;28;20096;-62
2023/06/09 09:47:06;;;;;;;7.45;6.80;;;;;;;;;;5054655;28;20054;-56
2023/06/09 09:49:31;;;;;;;8.07;7.28;;;;;;;;;;5053497;28;20086;-56
2023/06/09 09:51:58;;;;;;;9.70;7.25;;;;;;;;;;5037063;28;20123;-56
2023/06/09 09:54:25;;;;;;;7.72;6.95;;;;;;;;;;5055532;28;20047;-56
2023/06/09 09:56:51;;;;;;;7.35;6.85;;;;;;;;;;5054900;28;20052;-56
2023/06/09 09:59:16;;;;;;;7.50;6.85;;;;;;;;;;5054875;28;20040;-56
2023/06/09 10:01:42;;;;;;;7.47;6.88;;;;;;;;;;5054961;28;20040;-56
2023/06/09 10:04:08;;;;;;;7.65;7.05;;;;;;;;;;5055430;28;20048;-56
2023/06/09 10:06:37;;;;;;;8.43;7.63;;;;;;;;;;5055298;28;20380;-56
2023/06/09 10:09:04;;;;;;;7.53;6.95;;;;;;;;;;5054945;28;20037;-56
2023/06/09 10:11:31;;;;;;;8.18;7.50;;;;;;;;;;5054282;28;20086;-56
2023/06/09 10:13:57;;;;;;;8.75;7.85;;;;;;;;;;5069898;28;20021;-56
2023/06/09 10:16:23;;;;;;;7.93;7.10;;;;;;;;;;5054635;28;20009;-61
2023/06/09 10:18:48;;;;;;;6.80;6.20;;;;;;;;;;5055360;28;20342;-61
2023/06/09 10:21:14;;;;;;;6.90;6.32;;;;;;;;;;5055159;28;20092;-62
2023/06/09 10:23:40;;;;;;;6.13;5.63;;;;;;;;;;5054589;28;20416;-61
2023/06/09 10:26:07;;;;;;;6.15;5.55;;;;;;;;;;5054887;28;20028;-61
2023/06/09 10:28:33;;;;;;;6.20;5.70;;;;;;;;;;5069709;28;20056;-61
2023/06/09 10:30:58;;;;;;;6.38;5.88;;;;;;;;;;5054942;28;20061;-62
2023/06/09 10:33:27;;;;;;;6.57;5.90;;;;;;;;;;5054460;28;20025;-61
2023/06/09 10:35:55;;;;;;;6.30;5.78;;;;;;;;;;5054866;28;20381;-61
2023/06/09 10:38:21;;;;;;;5.82;5.32;;;;;;;;;;5054577;28;20051;-61
2023/06/09 10:40:49;;;;;;;4.63;4.00;;;;;;;;;;5054337;28;20029;-62
2023/06/09 10:43:27;;;;;;;4.38;4.07;;;;;;;;;;5053935;28;20394;-62
2023/06/09 10:45:54;;;;;;;5.70;5.15;;;;;;;;;;5054316;28;20078;-62
2023/06/09 10:48:38;;;;;;;5.80;5.32;;;;;;;;;;5069568;28;20029;-62
2023/06/09 10:51:22;;;;;;;5.00;4.57;;;;;;;;;;5053745;28;20534;-61
2023/06/09 10:54:06;;;;;;;5.82;5.30;;;;;;;;;;5069478;28;20025;-61
2023/06/09 10:56:32;;;;;;;6.15;5.53;;;;;;;;;;5034993;28;20048;-61
2023/06/09 10:58:57;;;;;;;5.85;5.32;;;;;;;;;;5054186;28;20033;-61
2023/06/09 11:01:23;;;;;;;6.10;5.55;;;;;;;;;;5054377;28;20021;-61
2023/06/09 11:03:48;;;;;;;5.43;5.03;;;;;;;;;;5054156;28;20036;-61
2023/06/09 11:06:13;;;;;;;5.72;5.00;;;;;;;;;;5068842;28;20024;-61
2023/06/09 11:08:57;;;;;;;5.38;5.03;;;;;;;;;;5035934;28;20477;-61
2023/06/09 11:11:43;;;;;;;6.85;5.10;;;;;;;;;;5053567;28;20435;-61
2023/06/09 11:14:08;;;;;;;5.03;4.63;;;;;;;;;;5053685;28;20033;-62
2023/06/09 11:16:52;;;;;;;5.03;4.68;;;;;;;;;;5053568;28;20067;-62
2023/06/09 11:19:23;;;;;;;5.65;5.10;;;;;;;;;;5053516;28;20032;-62
2023/06/09 11:22:04;;;;;;;4.88;4.47;;;;;;;;;;5053474;28;20040;-62
2023/06/09 11:24:45;;;;;;;7.13;5.40;;;;;;;;;;5053244;28;20025;-61
2023/06/09 11:27:17;;;;;;;7.53;6.80;;;;;;;;;;5053682;28;20033;-61
2023/06/09 11:29:43;;;;;;;8.00;6.05;;;;;;;;;;5035385;28;20025;-62
2023/06/09 11:32:08;;;;;;;5.80;5.05;;;;;;;;;;5053364;28;20043;-62
2023/06/09 11:34:55;;;;;;;5.38;4.90;;;;;;;;;;5036294;28;20032;-62
2023/06/09 11:37:20;;;;;;;5.68;5.18;;;;;;;;;;5035388;28;20044;-62
2023/06/09 11:39:46;;;;;;;5.43;4.63;;;;;;;;;;5054051;28;20021;-62
2023/06/09 11:42:12;;;;;;;4.82;4.50;;;;;;;;;;5034709;28;20027;-62
2023/06/09 11:44:38;;;;;;;5.07;4.68;;;;;;;;;;5052807;28;20379;-61
2023/06/09 11:47:23;;;;;;;5.07;4.45;;;;;;;;;;5052684;28;20032;-61
2023/06/09 11:49:58;;;;;;;5.45;4.95;;;;;;;;;;5067555;28;20099;-61
2023/06/09 11:52:24;;;;;;;4.80;4.47;;;;;;;;;;5051205;28;20443;-62
2023/06/09 11:54:51;;;;;;;4.97;4.65;;;;;;;;;;5065859;28;20104;-62
2023/06/09 11:57:17;;;;;;;5.47;5.07;;;;;;;;;;5050516;28;20493;-62
2023/06/09 11:59:43;;;;;;;5.00;4.55;;;;;;;;;;5050884;28;20033;-62
2023/06/09 12:02:09;;;;;;;5.00;4.60;;;;;;;;;;5050496;28;20071;-61
2023/06/09 12:04:38;;;;;;;5.20;4.80;;;;;;;;;;5066389;28;20250;-61
2023/06/09 12:07:04;;;;;;;7.03;4.60;;;;;;;;;;5066874;28;20032;-62
2023/06/09 12:09:30;;;;;;;6.45;4.72;;;;;;;;;;5052123;28;20029;-62
2023/06/09 12:11:55;;;;;;;5.63;4.72;;;;;;;;;;5034985;28;20062;-61
2023/06/09 12:14:21;;;;;;;4.75;4.15;;;;;;;;;;5051899;28;20104;-61
2023/06/09 12:16:47;;;;;;;5.10;4.70;;;;;;;;;;5052096;28;20139;-56
2023/06/09 12:19:12;;;;;;;6.25;4.53;;;;;;;;;;5052141;28;20057;-56
2023/06/09 12:21:38;;;;;;;4.43;4.07;;;;;;;;;;5052048;28;20091;-56
2023/06/09 12:24:05;;;;;;;5.55;4.55;;;;;;;;;;5052057;28;20096;-56
2023/06/09 12:26:44;;;;;;;5.22;4.82;;;;;;;;;;5051946;28;20025;-56
2023/06/09 12:29:10;;;;;;;7.05;5.68;;;;;;;;;;5051933;28;20044;-56
2023/06/09 12:31:42;;;;;;;11.23;5.18;;;;;;;;;;5051717;28;20037;-56
2023/06/09 12:34:08;;;;;;;6.10;5.50;;;;;;;;;;5033958;28;20067;-56
2023/06/09 12:36:40;;;;;;;6.03;4.32;;;;;;;;;;5067467;28;20055;-56
2023/06/09 12:39:17;;;;;;;6.82;5.30;;;;;;;;;;5051649;28;20045;-56
2023/06/09 12:41:43;;;;;;;6.70;5.13;;;;;;;;;;5049926;28;20119;-56
2023/06/09 12:44:17;;;;;;;4.93;4.53;;;;;;;;;;5052094;28;20121;-56
2023/06/09 12:46:42;;;;;;;4.82;4.53;;;;;;;;;;5051975;28;20151;-56
2023/06/09 12:49:08;;;;;;;6.88;5.15;;;;;;;;;;5054832;28;20076;-56
2023/06/09 12:51:40;;;;;;;4.75;4.35;;;;;;;;;;5055468;28;20490;-56
2023/06/09 12:54:06;;;;;;;5.22;4.82;;;;;;;;;;5055361;28;20033;-57
2023/06/09 12:56:31;;;;;;;5.75;4.90;;;;;;;;;;5070583;28;20515;-56
2023/06/09 12:58:57;;;;;;;7.00;5.07;;;;;;;;;;5054908;28;20029;-56
2023/06/09 13:01:24;;;;;;;5.07;4.68;;;;;;;;;;5055293;28;20040;-56
2023/06/09 13:03:50;;;;;;;6.78;5.47;;;;;;;;;;5070525;28;20095;-56
2023/06/09 13:06:16;;;;;;;5.18;4.85;;;;;;;;;;5055757;28;20484;-56
2023/06/09 13:08:41;;;;;;;5.82;5.32;;;;;;;;;;5055868;28;20047;-56
2023/06/09 13:11:06;;;;;;;5.20;4.70;;;;;;;;;;5071239;28;20031;-56
2023/06/09 13:13:36;;;;;;;6.85;6.07;;;;;;;;;;5054749;28;20091;-56
2023/06/09 13:16:01;;;;;;;5.55;5.03;;;;;;;;;;5055756;28;20064;-56
2023/06/09 13:18:27;;;;;;;5.25;4.85;;;;;;;;;;5055747;28;20057;-56
2023/06/09 13:20:52;;;;;;;4.88;4.25;;;;;;;;;;5055782;28;20104;-56
2023/06/09 13:23:17;;;;;;;4.57;4.28;;;;;;;;;;5055681;28;20082;-56
2023/06/09 13:25:44;;;;;;;6.25;5.68;;;;;;;;;;5055473;28;20033;-56
2023/06/09 13:28:14;;;;;;;4.70;4.20;;;;;;;;;;5037855;28;20342;-56
2023/06/09 13:30:40;;;;;;;11.50;7.03;;;;;;;;;;5055245;28;20059;-56
2023/06/09 13:33:06;;;;;;;6.35;3.70;;;;;;;;;;5055007;28;20062;-56
2023/06/09 13:35:33;;;;;;;3.80;3.47;;;;;;;;;;5055075;28;20028;-56
2023/06/09 13:37:59;;;;;;;4.03;3.72;;;;;;;;;;5055219;28;20468;-56
2023/06/09 13:40:24;;;;;;;5.05;3.97;;;;;;;;;;5055906;28;20017;-56
2023/06/09 13:42:52;;;;;;;4.55;4.15;;;;;;;;;;5056250;28;20060;-56
2023/06/09 13:45:24;;;;;;;4.97;4.57;;;;;;;;;;5037630;28;20025;-56
2023/06/09 13:47:51;;;;;;;9.73;5.40;;;;;;;;;;5055733;28;20033;-56
2023/06/09 13:50:16;;;;;;;12.10;6.63;;;;;;;;;;5055719;28;20452;-56
2023/06/09 13:52:42;;;;;;;7.10;5.30;;;;;;;;;;5055258;28;20033;-56
2023/06/09 13:55:08;;;;;;;6.85;5.80;;;;;;;;;;5053889;28;20036;-56
2023/06/09 14:10:07;;;;;;;7.43;3.22;;;;;;;;;;5131389;27;20461;-57
2023/06/09 14:12:33;;;;;;;4.30;3.42;;;;;;;;;;5130226;28;20051;-56
2023/06/09 14:52:57;;;;;;;4.00;3.58;;;;;;;;;;5171988;27;20463;-68
2023/06/09 14:55:24;;;;;;;6.78;5.00;;;;;;;;;;5153150;27;20026;-68
2023/06/09 14:57:50;;;;;;;14.85;12.18;;;;;;;;;;5172536;27;20034;-68
2023/06/09 15:00:17;;;;;;;8.05;6.60;;;;;;;;;;5172428;27;20397;-68
2023/06/09 15:02:45;;;;;;;5.88;4.60;;;;;;;;;;5172377;27;20027;-61
2023/06/09 15:05:10;;;;;;;3.45;3.25;;;;;;;;;;5172134;27;20018;-61
2023/06/09 15:07:35;;;;;;;3.70;3.40;;;;;;;;;;5172078;27;20071;-61
2023/06/09 15:10:00;;;;;;;3.75;3.45;;;;;;;;;;5172325;27;20385;-61
2023/06/09 15:12:26;;;;;;;4.15;3.17;;;;;;;;;;5171981;27;20069;-61
2023/06/09 15:14:51;;;;;;;3.47;3.28;;;;;;;;;;5172078;27;20103;-61
2023/06/09 15:17:16;;;;;;;5.13;4.70;;;;;;;;;;5172803;27;20022;-61
2023/06/09 15:19:42;;;;;;;4.53;4.13;;;;;;;;;;5172804;27;20041;-60
2023/06/09 15:22:08;;;;;;;4.00;3.63;;;;;;;;;;5172488;27;20118;-61
2023/06/09 15:24:33;;;;;;;4.47;3.80;;;;;;;;;;5172399;27;20054;-60
2023/06/09 15:26:59;;;;;;;4.65;3.40;;;;;;;;;;5172571;27;20080;-61
2023/06/09 15:29:25;;;;;;;6.50;3.92;;;;;;;;;;5172211;27;20549;-61